Time;durP1;ratioP1;P1;durP2;ratioP2;P2;SDS_P1;SDS_P2;PMS_P1;PMS_P2;Temp;Humidity;BMP_temperature;BMP_pressure;BME280_temperature;BME280_humidity;BME280_pressure;Samples;Min_cycle;Max_cycle;Signal;HPM_P1;HPM_P2
2022/10/14 00:00:40;;;;;;;27.90;23.20;;;;;;;;;;5056852;28;20025;-76
2022/10/14 00:03:06;;;;;;;34.13;23.65;;;;;;;;;;5060111;28;20025;-77
2022/10/14 00:05:32;;;;;;;34.40;25.58;;;;;;;;;;5059815;28;20554;-77
2022/10/14 00:07:58;;;;;;;31.65;23.98;;;;;;;;;;5056881;28;20033;-77
2022/10/14 00:10:24;;;;;;;34.80;25.08;;;;;;;;;;5059188;28;20021;-77
2022/10/14 00:12:50;;;;;;;32.95;25.13;;;;;;;;;;5058253;28;20055;-76
2022/10/14 00:15:16;;;;;;;34.70;26.33;;;;;;;;;;5059524;28;20423;-77
2022/10/14 00:17:42;;;;;;;34.28;26.02;;;;;;;;;;5057834;28;20469;-77
2022/10/14 00:20:09;;;;;;;31.00;23.95;;;;;;;;;;5059031;28;20032;-77
2022/10/14 00:22:35;;;;;;;32.92;24.15;;;;;;;;;;5059278;28;20063;-77
2022/10/14 00:25:01;;;;;;;30.77;24.17;;;;;;;;;;5059543;28;20033;-76
2022/10/14 00:27:27;;;;;;;31.85;24.35;;;;;;;;;;5059066;28;20353;-77
2022/10/14 00:29:53;;;;;;;32.00;24.27;;;;;;;;;;5059044;28;20090;-76
2022/10/14 00:32:19;;;;;;;35.35;24.08;;;;;;;;;;5041219;28;20049;-76
2022/10/14 00:34:45;;;;;;;33.35;23.90;;;;;;;;;;5059330;28;20074;-77
2022/10/14 00:37:11;;;;;;;31.95;25.40;;;;;;;;;;5058735;28;20037;-77
2022/10/14 00:39:37;;;;;;;39.50;27.10;;;;;;;;;;5058906;28;20051;-77
2022/10/14 00:42:03;;;;;;;37.13;27.90;;;;;;;;;;5058863;28;20017;-77
2022/10/14 00:44:29;;;;;;;32.70;26.48;;;;;;;;;;5058784;28;20422;-77
2022/10/14 00:46:55;;;;;;;37.08;27.92;;;;;;;;;;5059015;28;20033;-77
2022/10/14 00:49:24;;;;;;;37.28;29.33;;;;;;;;;;5058670;28;20029;-77
2022/10/14 00:52:02;;;;;;;38.13;28.80;;;;;;;;;;5059342;28;20036;-77
2022/10/14 00:54:30;;;;;;;35.03;28.90;;;;;;;;;;5078754;28;20033;-77
2022/10/14 00:56:56;;;;;;;36.47;29.35;;;;;;;;;;5070399;28;20017;-78
2022/10/14 00:59:22;;;;;;;40.00;30.17;;;;;;;;;;5058686;28;20087;-77
2022/10/14 01:01:48;;;;;;;37.22;28.77;;;;;;;;;;5058833;28;20024;-77
2022/10/14 01:04:14;;;;;;;37.15;27.65;;;;;;;;;;5058636;28;20029;-77
2022/10/14 01:06:49;;;;;;;34.13;25.73;;;;;;;;;;5058401;28;20310;-77
2022/10/14 01:09:18;;;;;;;31.75;23.80;;;;;;;;;;5057409;28;20029;-77
2022/10/14 01:11:57;;;;;;;32.92;23.60;;;;;;;;;;5058617;28;20047;-78
2022/10/14 01:14:26;;;;;;;33.65;23.33;;;;;;;;;;5038628;28;20025;-77
2022/10/14 01:17:00;;;;;;;31.02;22.90;;;;;;;;;;5052749;28;20029;-77
2022/10/14 01:19:32;;;;;;;32.55;22.85;;;;;;;;;;5058525;28;20032;-77
2022/10/14 01:22:17;;;;;;;32.33;23.13;;;;;;;;;;5057535;28;20108;-77
2022/10/14 01:24:49;;;;;;;28.38;21.50;;;;;;;;;;5058212;28;20349;-77
2022/10/14 01:27:15;;;;;;;;;;;;;;;;;;5058214;28;20082;-77
2022/10/14 01:29:43;;;;;;;27.25;20.38;;;;;;;;;;5058337;28;20193;-77
2022/10/14 01:32:12;;;;;;;27.15;19.88;;;;;;;;;;5057904;28;20414;-76
2022/10/14 01:34:41;;;;;;;45.72;29.42;;;;;;;;;;5057035;28;20028;-76
2022/10/14 01:37:10;;;;;;;38.88;29.88;;;;;;;;;;5057696;28;20422;-76
2022/10/14 01:39:39;;;;;;;33.22;25.25;;;;;;;;;;5058084;28;20132;-77
2022/10/14 01:42:08;;;;;;;26.45;22.00;;;;;;;;;;5057917;28;20114;-76
2022/10/14 01:44:36;;;;;;;28.15;22.17;;;;;;;;;;5057876;28;20330;-76
2022/10/14 01:47:02;;;;;;;29.17;21.75;;;;;;;;;;5057789;28;20067;-77
2022/10/14 01:49:41;;;;;;;34.15;22.83;;;;;;;;;;5058000;28;20028;-77
2022/10/14 01:52:13;;;;;;;32.38;21.88;;;;;;;;;;5056826;28;20028;-77
2022/10/14 01:54:42;;;;;;;30.25;23.10;;;;;;;;;;5057294;28;20119;-77
2022/10/14 01:57:10;;;;;;;32.90;22.60;;;;;;;;;;5055087;28;20315;-77
2022/10/14 01:59:38;;;;;;;34.67;24.23;;;;;;;;;;5057446;28;20067;-76
2022/10/14 02:02:04;;;;;;;36.67;23.73;;;;;;;;;;5057210;28;20025;-76
2022/10/14 02:04:30;;;;;;;34.33;24.27;;;;;;;;;;5076860;28;20029;-78
2022/10/14 02:06:56;;;;;;;32.08;23.00;;;;;;;;;;5065094;28;20312;-77
2022/10/14 02:09:27;;;;;;;30.63;22.80;;;;;;;;;;5057291;28;20035;-77
2022/10/14 02:11:53;;;;;;;29.88;22.05;;;;;;;;;;5057251;28;20025;-77
2022/10/14 02:14:32;;;;;;;33.35;23.00;;;;;;;;;;5051352;28;20159;-77
2022/10/14 02:17:01;;;;;;;33.15;23.85;;;;;;;;;;5055986;28;20494;-77
2022/10/14 02:19:41;;;;;;;34.03;22.98;;;;;;;;;;5057047;28;20021;-77
2022/10/14 02:22:13;;;;;;;33.05;22.67;;;;;;;;;;5057057;28;20032;-77
2022/10/14 02:24:41;;;;;;;28.27;22.42;;;;;;;;;;5056528;28;20365;-77
2022/10/14 02:27:11;;;;;;;32.55;23.38;;;;;;;;;;5039922;28;20051;-77
2022/10/14 02:29:39;;;;;;;35.58;23.02;;;;;;;;;;5057098;28;20025;-77
2022/10/14 02:32:05;;;;;;;33.22;22.88;;;;;;;;;;5056480;28;20029;-77
2022/10/14 02:34:32;;;;;;;29.95;22.27;;;;;;;;;;5056452;28;20112;-77
2022/10/14 02:36:58;;;;;;;30.65;22.83;;;;;;;;;;5056588;28;20025;-77
2022/10/14 02:39:27;;;;;;;32.08;22.90;;;;;;;;;;5056774;28;20025;-76
2022/10/14 02:41:53;;;;;;;33.08;23.20;;;;;;;;;;5056910;28;20028;-78
2022/10/14 02:44:19;;;;;;;30.25;23.08;;;;;;;;;;5057251;28;20032;-77
2022/10/14 02:46:45;;;;;;;32.28;23.98;;;;;;;;;;5056885;28;20029;-77
2022/10/14 02:49:11;;;;;;;33.78;24.02;;;;;;;;;;5056917;28;20407;-78
2022/10/14 02:51:37;;;;;;;32.03;23.27;;;;;;;;;;5056080;28;20075;-76
2022/10/14 02:54:03;;;;;;;37.45;23.95;;;;;;;;;;5055906;28;20461;-77
2022/10/14 02:56:29;;;;;;;40.78;25.67;;;;;;;;;;5054447;28;20021;-77
2022/10/14 02:58:55;;;;;;;35.25;25.00;;;;;;;;;;5056616;28;20062;-77
2022/10/14 03:01:22;;;;;;;36.58;25.65;;;;;;;;;;5056406;28;20070;-77
2022/10/14 03:03:48;;;;;;;32.22;24.05;;;;;;;;;;5039232;28;20025;-77
2022/10/14 03:06:14;;;;;;;33.90;25.10;;;;;;;;;;5056634;28;20116;-78
2022/10/14 03:08:40;;;;;;;37.88;24.92;;;;;;;;;;5056478;28;20052;-78
2022/10/14 03:11:06;;;;;;;33.70;25.92;;;;;;;;;;5056378;28;20029;-78
2022/10/14 03:13:32;;;;;;;33.40;25.52;;;;;;;;;;5056234;28;20090;-77
2022/10/14 03:15:58;;;;;;;32.33;24.17;;;;;;;;;;5056799;28;20017;-77
2022/10/14 03:18:24;;;;;;;34.88;25.38;;;;;;;;;;5056814;28;20022;-77
2022/10/14 03:20:50;;;;;;;31.65;25.08;;;;;;;;;;5056267;28;20013;-77
2022/10/14 03:23:16;;;;;;;32.90;24.23;;;;;;;;;;5060737;28;20040;-77
2022/10/14 03:25:45;;;;;;;33.42;23.75;;;;;;;;;;5056615;28;20032;-76
2022/10/14 03:28:12;;;;;;;35.53;25.17;;;;;;;;;;5056474;28;20055;-76
2022/10/14 03:30:38;;;;;;;32.88;24.27;;;;;;;;;;5056047;28;20350;-76
2022/10/14 03:33:04;;;;;;;31.00;23.38;;;;;;;;;;5061381;28;20021;-76
2022/10/14 03:35:30;;;;;;;35.25;24.60;;;;;;;;;;5077360;28;20402;-77
2022/10/14 03:37:58;;;;;;;32.78;24.08;;;;;;;;;;5060240;28;20021;-77
2022/10/14 03:40:24;;;;;;;30.65;24.25;;;;;;;;;;5059428;28;20028;-76
2022/10/14 03:42:50;;;;;;;30.55;23.77;;;;;;;;;;5060449;28;20028;-77
2022/10/14 03:45:16;;;;;;;32.60;23.75;;;;;;;;;;5069583;28;20056;-76
2022/10/14 03:47:42;;;;;;;32.30;24.33;;;;;;;;;;5080274;28;20021;-77
2022/10/14 03:50:08;;;;;;;30.67;23.77;;;;;;;;;;5080150;28;20050;-78
2022/10/14 03:52:35;;;;;;;31.65;23.65;;;;;;;;;;5062334;28;20061;-75
2022/10/14 03:55:01;;;;;;;31.42;22.83;;;;;;;;;;5059900;28;20052;-78
2022/10/14 03:57:27;;;;;;;28.45;21.95;;;;;;;;;;5059943;28;20067;-78
2022/10/14 03:59:53;;;;;;;31.35;22.75;;;;;;;;;;5060191;28;20084;-78
2022/10/14 04:02:19;;;;;;;27.83;21.80;;;;;;;;;;5060113;28;20017;-77
2022/10/14 04:04:45;;;;;;;30.63;21.58;;;;;;;;;;5060014;28;20025;-77
2022/10/14 04:07:11;;;;;;;28.50;21.42;;;;;;;;;;5059729;28;20025;-77
2022/10/14 04:09:37;;;;;;;26.90;20.98;;;;;;;;;;5059749;28;20419;-77
2022/10/14 04:12:03;;;;;;;31.63;22.10;;;;;;;;;;5059923;28;20032;-77
2022/10/14 04:14:29;;;;;;;27.08;22.33;;;;;;;;;;5058492;28;20033;-78
2022/10/14 04:16:55;;;;;;;34.20;22.83;;;;;;;;;;5059697;28;20101;-78
2022/10/14 04:19:21;;;;;;;33.17;22.88;;;;;;;;;;5059731;28;20052;-77
2022/10/14 04:21:47;;;;;;;28.85;22.27;;;;;;;;;;5059482;28;20029;-77
2022/10/14 04:24:14;;;;;;;32.28;22.85;;;;;;;;;;5058476;28;20029;-77
2022/10/14 04:26:40;;;;;;;30.70;23.98;;;;;;;;;;5059506;28;20021;-78
2022/10/14 04:29:06;;;;;;;33.53;25.20;;;;;;;;;;5059407;28;20025;-77
2022/10/14 04:31:32;;;;;;;33.10;23.45;;;;;;;;;;5059172;28;20032;-77
2022/10/14 04:33:58;;;;;;;31.55;22.85;;;;;;;;;;5059226;28;20406;-78
2022/10/14 04:36:24;;;;;;;34.67;22.98;;;;;;;;;;5059374;28;20047;-78
2022/10/14 04:38:50;;;;;;;32.35;22.80;;;;;;;;;;5059346;28;20029;-77
2022/10/14 04:41:16;;;;;;;33.90;24.90;;;;;;;;;;5058203;28;20124;-78
2022/10/14 04:43:42;;;;;;;49.83;34.17;;;;;;;;;;5059184;28;20033;-78
2022/10/14 04:46:08;;;;;;;52.53;36.75;;;;;;;;;;5059070;28;20101;-77
2022/10/14 04:48:34;;;;;;;56.35;38.83;;;;;;;;;;5059008;28;20518;-77
2022/10/14 04:51:00;;;;;;;54.97;37.17;;;;;;;;;;5059112;28;20028;-78
2022/10/14 04:53:26;;;;;;;49.53;33.63;;;;;;;;;;5058658;28;20057;-77
2022/10/14 04:55:52;;;;;;;46.90;32.65;;;;;;;;;;5058993;28;20032;-77
2022/10/14 04:58:19;;;;;;;41.17;29.38;;;;;;;;;;5058830;28;20021;-77
2022/10/14 05:00:45;;;;;;;40.40;26.75;;;;;;;;;;5059022;28;20021;-77
2022/10/14 05:03:11;;;;;;;36.47;26.30;;;;;;;;;;5057527;28;20425;-77
2022/10/14 05:05:37;;;;;;;36.25;25.30;;;;;;;;;;5058816;28;20112;-77
2022/10/14 05:08:03;;;;;;;39.15;26.25;;;;;;;;;;5058844;28;20028;-77
2022/10/14 05:10:30;;;;;;;35.38;25.15;;;;;;;;;;5058718;28;20025;-77
2022/10/14 05:12:56;;;;;;;35.17;24.10;;;;;;;;;;5058482;28;20067;-76
2022/10/14 05:15:22;;;;;;;37.90;24.05;;;;;;;;;;5058701;28;20061;-77
2022/10/14 05:17:48;;;;;;;33.55;24.08;;;;;;;;;;5057446;28;20020;-77
2022/10/14 05:20:16;;;;;;;34.50;24.35;;;;;;;;;;5058077;28;20063;-77
2022/10/14 05:22:44;;;;;;;34.25;23.83;;;;;;;;;;5058257;28;20033;-78
2022/10/14 05:25:10;;;;;;;34.83;25.88;;;;;;;;;;5058538;28;20028;-77
2022/10/14 05:27:36;;;;;;;41.85;29.35;;;;;;;;;;5058271;28;20037;-77
2022/10/14 05:30:02;;;;;;;46.15;29.50;;;;;;;;;;5057156;28;20479;-77
2022/10/14 05:32:28;;;;;;;39.75;27.90;;;;;;;;;;5057184;28;20117;-78
2022/10/14 05:34:54;;;;;;;39.38;27.50;;;;;;;;;;5057283;28;20111;-77
2022/10/14 05:37:20;;;;;;;38.35;26.90;;;;;;;;;;5056936;28;20120;-77
2022/10/14 05:39:46;;;;;;;34.38;26.27;;;;;;;;;;5058136;28;20074;-77
2022/10/14 05:42:12;;;;;;;31.95;24.55;;;;;;;;;;5056947;28;20074;-77
2022/10/14 05:44:38;;;;;;;35.83;25.15;;;;;;;;;;5058064;28;20096;-77
2022/10/14 05:47:04;;;;;;;35.15;24.83;;;;;;;;;;5058073;28;20178;-77
2022/10/14 05:49:30;;;;;;;37.33;24.63;;;;;;;;;;5057069;28;20415;-77
2022/10/14 05:51:56;;;;;;;37.00;24.63;;;;;;;;;;5048111;28;20060;-78
2022/10/14 05:54:22;;;;;;;35.92;25.23;;;;;;;;;;5055806;28;20078;-77
2022/10/14 05:56:48;;;;;;;39.78;24.42;;;;;;;;;;5057831;28;20025;-76
2022/10/14 05:59:14;;;;;;;35.50;24.17;;;;;;;;;;5057075;28;20023;-77
2022/10/14 06:01:41;;;;;;;36.08;23.08;;;;;;;;;;5057785;28;20025;-77
2022/10/14 06:04:07;;;;;;;33.28;23.88;;;;;;;;;;5040594;28;20392;-77
2022/10/14 06:06:34;;;;;;;35.38;24.30;;;;;;;;;;5057679;28;20057;-77
2022/10/14 06:09:00;;;;;;;33.40;24.58;;;;;;;;;;5057541;28;20461;-77
2022/10/14 06:11:27;;;;;;;36.80;24.63;;;;;;;;;;5057492;28;20032;-78
2022/10/14 06:13:53;;;;;;;31.98;24.27;;;;;;;;;;5057301;28;20311;-77
2022/10/14 06:16:19;;;;;;;33.13;24.52;;;;;;;;;;5056139;28;20033;-77
2022/10/14 06:18:45;;;;;;;36.92;24.38;;;;;;;;;;5040196;28;20117;-77
2022/10/14 06:21:11;;;;;;;33.42;24.20;;;;;;;;;;5057393;28;20470;-78
2022/10/14 06:23:37;;;;;;;34.35;24.60;;;;;;;;;;5057450;28;20029;-77
2022/10/14 06:26:05;;;;;;;38.55;25.15;;;;;;;;;;5057564;28;20104;-77
2022/10/14 06:28:31;;;;;;;33.88;24.73;;;;;;;;;;5057249;28;20112;-77
2022/10/14 06:30:58;;;;;;;38.10;24.10;;;;;;;;;;5056123;28;20040;-77
2022/10/14 06:33:24;;;;;;;31.27;23.95;;;;;;;;;;5056126;28;20040;-77
2022/10/14 06:35:50;;;;;;;33.65;25.13;;;;;;;;;;5057189;28;20108;-78
2022/10/14 06:38:16;;;;;;;33.28;23.92;;;;;;;;;;5057199;28;20025;-78
2022/10/14 06:40:42;;;;;;;32.33;22.52;;;;;;;;;;5057147;28;20067;-77
2022/10/14 06:43:08;;;;;;;31.67;22.58;;;;;;;;;;5056859;28;20021;-77
2022/10/14 06:45:34;;;;;;;30.33;22.35;;;;;;;;;;5055676;28;20035;-77
2022/10/14 06:48:03;;;;;;;36.03;24.02;;;;;;;;;;5057042;28;20047;-77
2022/10/14 06:50:29;;;;;;;31.33;23.42;;;;;;;;;;5057120;28;20096;-77
2022/10/14 06:52:55;;;;;;;31.52;23.02;;;;;;;;;;5056897;28;20065;-77
2022/10/14 06:55:21;;;;;;;28.25;20.48;;;;;;;;;;5056924;28;20347;-77
2022/10/14 06:57:47;;;;;;;29.45;21.33;;;;;;;;;;5055385;28;20067;-77
2022/10/14 07:00:13;;;;;;;27.48;20.63;;;;;;;;;;5040168;28;20152;-78
2022/10/14 07:02:39;;;;;;;32.33;20.55;;;;;;;;;;5056865;28;20025;-77
2022/10/14 07:05:05;;;;;;;30.77;22.17;;;;;;;;;;5057054;28;20083;-78
2022/10/14 07:07:31;;;;;;;29.50;20.83;;;;;;;;;;5055733;28;20044;-77
2022/10/14 07:09:58;;;;;;;29.98;20.77;;;;;;;;;;5057840;28;20029;-77
2022/10/14 07:12:24;;;;;;;27.75;20.50;;;;;;;;;;5060897;28;20044;-77
2022/10/14 07:14:50;;;;;;;31.90;21.10;;;;;;;;;;5060759;28;20025;-77
2022/10/14 07:17:16;;;;;;;32.72;22.50;;;;;;;;;;5060555;28;20035;-78
2022/10/14 07:19:42;;;;;;;30.92;20.90;;;;;;;;;;5061033;28;20017;-78
2022/10/14 07:22:08;;;;;;;33.45;22.33;;;;;;;;;;5060631;28;20049;-77
2022/10/14 07:24:34;;;;;;;34.78;22.58;;;;;;;;;;5060665;28;20426;-77
2022/10/14 07:27:00;;;;;;;32.08;20.23;;;;;;;;;;5059337;28;20033;-77
2022/10/14 07:29:26;;;;;;;26.45;19.50;;;;;;;;;;5060630;28;20079;-77
2022/10/14 07:31:52;;;;;;;26.38;18.80;;;;;;;;;;5060772;28;20031;-77
2022/10/14 07:34:18;;;;;;;27.23;17.85;;;;;;;;;;5060606;28;20024;-78
2022/10/14 07:36:45;;;;;;;24.55;17.60;;;;;;;;;;5060426;28;20330;-78
2022/10/14 07:39:11;;;;;;;28.48;19.77;;;;;;;;;;5060473;28;20300;-77
2022/10/14 07:41:37;;;;;;;26.17;18.13;;;;;;;;;;5060436;28;20021;-78
2022/10/14 07:44:08;;;;;;;27.73;17.90;;;;;;;;;;5060373;28;20025;-77
2022/10/14 07:46:35;;;;;;;26.95;15.75;;;;;;;;;;5060440;28;20100;-77
2022/10/14 07:49:06;;;;;;;25.08;16.20;;;;;;;;;;5060292;28;20185;-79
2022/10/14 07:51:33;;;;;;;32.47;21.88;;;;;;;;;;5060349;28;20048;-77
2022/10/14 07:54:00;;;;;;;26.15;17.25;;;;;;;;;;5059872;28;20045;-77
2022/10/14 07:56:27;;;;;;;22.55;15.98;;;;;;;;;;5059719;28;20070;-78
2022/10/14 07:58:53;;;;;;;25.42;16.45;;;;;;;;;;5059999;28;20028;-77
2022/10/14 08:01:19;;;;;;;26.92;17.35;;;;;;;;;;5060154;28;20067;-77
2022/10/14 08:03:46;;;;;;;34.33;21.13;;;;;;;;;;5059919;28;20397;-78
2022/10/14 08:06:13;;;;;;;21.95;15.30;;;;;;;;;;5059718;28;20033;-77
2022/10/14 08:08:39;;;;;;;26.88;16.23;;;;;;;;;;5059933;28;20025;-78
2022/10/14 08:11:06;;;;;;;24.95;15.18;;;;;;;;;;5059899;28;20024;-77
2022/10/14 08:13:33;;;;;;;26.65;14.10;;;;;;;;;;5058733;28;20368;-77
2022/10/14 08:15:59;;;;;;;27.27;16.60;;;;;;;;;;5056969;28;20112;-77
2022/10/14 08:18:26;;;;;;;26.85;15.48;;;;;;;;;;5059034;28;20025;-76
2022/10/14 08:20:52;;;;;;;23.85;16.60;;;;;;;;;;5037915;28;20415;-77
2022/10/14 08:23:18;;;;;;;27.63;17.60;;;;;;;;;;5039508;28;20025;-77
2022/10/14 08:25:46;;;;;;;23.45;14.90;;;;;;;;;;5048655;28;20021;-77
2022/10/14 08:28:12;;;;;;;24.30;16.10;;;;;;;;;;5059500;28;20033;-77
2022/10/14 08:30:38;;;;;;;24.75;16.67;;;;;;;;;;5059625;28;20100;-77
2022/10/14 08:33:04;;;;;;;24.83;15.10;;;;;;;;;;5059706;28;20025;-77
2022/10/14 08:35:30;;;;;;;25.40;15.52;;;;;;;;;;5059290;28;20029;-77
2022/10/14 08:37:57;;;;;;;30.48;18.63;;;;;;;;;;5058268;28;20078;-77
2022/10/14 08:40:23;;;;;;;23.55;16.40;;;;;;;;;;5059672;28;20063;-77
2022/10/14 08:43:00;;;;;;;23.08;14.75;;;;;;;;;;5052920;28;20300;-77
2022/10/14 08:45:31;;;;;;;22.20;12.18;;;;;;;;;;5044914;28;20459;-77
2022/10/14 08:47:58;;;;;;;18.10;11.35;;;;;;;;;;5039160;28;20068;-77
2022/10/14 08:50:30;;;;;;;20.45;13.13;;;;;;;;;;5050937;28;20433;-77
2022/10/14 08:53:00;;;;;;;24.23;11.93;;;;;;;;;;5058674;28;20136;-77
2022/10/14 08:55:36;;;;;;;24.30;14.45;;;;;;;;;;5053118;28;20334;-66
2022/10/14 08:58:07;;;;;;;24.65;16.65;;;;;;;;;;5053835;28;20025;-66
2022/10/14 09:00:33;;;;;;;31.17;16.95;;;;;;;;;;5059055;28;20319;-66
2022/10/14 09:03:02;;;;;;;29.85;18.52;;;;;;;;;;5058550;28;20028;-66
2022/10/14 09:05:28;;;;;;;31.17;18.60;;;;;;;;;;5052927;28;20066;-66
2022/10/14 09:07:56;;;;;;;29.30;18.05;;;;;;;;;;5058658;28;20048;-66
2022/10/14 09:10:32;;;;;;;22.27;14.00;;;;;;;;;;5058846;28;20124;-67
2022/10/14 09:13:01;;;;;;;24.33;13.70;;;;;;;;;;5052127;28;20025;-66
2022/10/14 09:15:30;;;;;;;25.33;15.48;;;;;;;;;;5050757;28;20314;-66
2022/10/14 09:18:09;;;;;;;26.25;17.67;;;;;;;;;;5047277;28;20113;-66
2022/10/14 09:20:36;;;;;;;50.00;31.00;;;;;;;;;;5038510;28;20056;-66
2022/10/14 09:23:16;;;;;;;25.38;12.93;;;;;;;;;;5038241;28;20026;-66
2022/10/14 09:26:04;;;;;;;26.10;15.50;;;;;;;;;;5042517;28;20319;-66
2022/10/14 09:28:35;;;;;;;26.50;14.23;;;;;;;;;;5050342;28;20022;-67
2022/10/14 09:31:01;;;;;;;20.77;12.75;;;;;;;;;;5045407;28;20356;-66
2022/10/14 09:33:28;;;;;;;34.35;20.77;;;;;;;;;;5056860;28;20120;-66
2022/10/14 09:35:56;;;;;;;26.08;14.45;;;;;;;;;;5058290;28;20025;-66
2022/10/14 09:38:23;;;;;;;22.90;14.25;;;;;;;;;;5058241;28;20021;-66
2022/10/14 09:40:50;;;;;;;20.92;11.40;;;;;;;;;;5057857;28;20017;-66
2022/10/14 09:43:17;;;;;;;23.45;11.30;;;;;;;;;;5058122;28;20033;-66
2022/10/14 09:45:49;;;;;;;21.90;11.63;;;;;;;;;;5057997;28;20017;-66
2022/10/14 09:48:17;;;;;;;20.23;11.65;;;;;;;;;;5058042;28;20411;-66
2022/10/14 09:50:50;;;;;;;12.00;8.20;;;;;;;;;;5057905;28;20025;-66
2022/10/14 09:53:18;;;;;;;39.15;12.60;;;;;;;;;;5057413;28;20057;-66
2022/10/14 09:55:48;;;;;;;16.25;9.98;;;;;;;;;;5057780;28;20036;-66
2022/10/14 09:58:17;;;;;;;16.65;11.25;;;;;;;;;;5057753;28;20045;-66
2022/10/14 10:00:44;;;;;;;23.92;8.88;;;;;;;;;;5057637;28;20029;-66
2022/10/14 10:03:24;;;;;;;18.58;7.75;;;;;;;;;;5058100;28;20021;-66
2022/10/14 10:05:58;;;;;;;15.45;8.13;;;;;;;;;;5057714;28;20381;-66
2022/10/14 10:08:25;;;;;;;14.48;8.18;;;;;;;;;;5057578;28;20023;-66
2022/10/14 10:10:59;;;;;;;11.77;7.10;;;;;;;;;;5057720;28;20021;-66
2022/10/14 10:13:33;;;;;;;14.85;8.77;;;;;;;;;;5057637;28;20474;-66
2022/10/14 10:16:01;;;;;;;11.10;6.80;;;;;;;;;;5057474;28;20024;-66
2022/10/14 10:18:27;;;;;;;19.27;9.80;;;;;;;;;;5057573;28;20051;-67
2022/10/14 10:21:07;;;;;;;24.58;13.07;;;;;;;;;;5057454;28;20017;-66
2022/10/14 10:23:34;;;;;;;15.98;8.95;;;;;;;;;;5057632;28;20039;-66
2022/10/14 10:26:14;;;;;;;15.18;7.85;;;;;;;;;;5057421;28;20017;-67
2022/10/14 10:28:44;;;;;;;15.07;8.52;;;;;;;;;;5057491;28;20028;-66
2022/10/14 10:31:28;;;;;;;15.82;10.23;;;;;;;;;;5057352;28;20112;-66
2022/10/14 10:34:06;;;;;;;24.75;16.63;;;;;;;;;;5057176;28;20075;-67
2022/10/14 10:36:40;;;;;;;17.50;10.35;;;;;;;;;;5057101;28;20025;-66
2022/10/14 10:39:15;;;;;;;16.77;10.85;;;;;;;;;;5057122;28;20033;-67
2022/10/14 10:42:02;;;;;;;18.02;9.50;;;;;;;;;;5057255;28;20396;-66
2022/10/14 10:44:39;;;;;;;21.65;11.40;;;;;;;;;;5056513;28;20104;-66
2022/10/14 10:47:23;;;;;;;15.85;9.65;;;;;;;;;;5056929;28;20029;-66
2022/10/14 10:50:08;;;;;;;21.00;12.45;;;;;;;;;;5055784;28;20040;-66
2022/10/14 10:52:43;;;;;;;20.25;12.10;;;;;;;;;;5055692;28;20056;-67
2022/10/14 10:55:29;;;;;;;14.15;8.85;;;;;;;;;;5056606;28;20087;-66
2022/10/14 10:58:04;;;;;;;17.70;9.07;;;;;;;;;;5056854;28;20029;-66
2022/10/14 11:00:34;;;;;;;15.02;9.13;;;;;;;;;;5056970;28;20017;-66
2022/10/14 11:03:00;;;;;;;24.42;15.10;;;;;;;;;;5056796;28;20028;-66
2022/10/14 11:05:39;;;;;;;18.38;11.95;;;;;;;;;;5056833;28;20040;-66
2022/10/14 11:14:07;;;;;;;13.68;9.07;;;;;;;;;;5056746;28;20032;-66
2022/10/14 11:16:38;;;;;;;14.73;8.73;;;;;;;;;;5056736;28;20345;-66
2022/10/14 11:19:04;;;;;;;14.77;9.77;;;;;;;;;;5056999;28;20021;-66
2022/10/14 11:21:42;;;;;;;14.48;8.50;;;;;;;;;;5056727;28;20430;-66
2022/10/14 11:24:27;;;;;;;12.02;7.97;;;;;;;;;;5056791;28;20111;-73
2022/10/14 11:27:07;;;;;;;15.80;11.18;;;;;;;;;;5056531;28;20036;-66
2022/10/14 11:29:52;;;;;;;17.70;10.95;;;;;;;;;;5056773;28;20041;-66
2022/10/14 11:32:26;;;;;;;33.63;19.42;;;;;;;;;;5056647;28;20067;-66
2022/10/14 11:34:54;;;;;;;19.42;10.88;;;;;;;;;;5055362;28;20044;-67
2022/10/14 11:37:23;;;;;;;16.45;8.60;;;;;;;;;;5044693;28;20411;-66
2022/10/14 11:39:55;;;;;;;47.92;27.85;;;;;;;;;;5036615;28;20319;-66
2022/10/14 11:42:39;;;;;;;29.38;19.20;;;;;;;;;;5049561;28;20059;-67
2022/10/14 11:45:05;;;;;;;26.00;16.10;;;;;;;;;;5056326;28;20029;-66
2022/10/14 11:47:33;;;;;;;18.50;12.10;;;;;;;;;;5056242;28;20488;-66
2022/10/14 11:49:59;;;;;;;13.52;6.93;;;;;;;;;;5055819;28;20052;-66
2022/10/14 11:52:31;;;;;;;23.27;13.23;;;;;;;;;;5055721;28;20033;-66
2022/10/14 11:54:59;;;;;;;33.15;23.33;;;;;;;;;;5056307;28;20072;-66
2022/10/14 11:57:25;;;;;;;20.17;11.52;;;;;;;;;;5058902;28;20071;-67
2022/10/14 12:00:01;;;;;;;36.83;24.35;;;;;;;;;;5060134;28;20104;-66
2022/10/14 12:02:40;;;;;;;17.00;11.70;;;;;;;;;;5065838;28;20052;-67
2022/10/14 12:05:11;;;;;;;18.98;10.05;;;;;;;;;;5059957;28;20048;-67
2022/10/14 12:07:41;;;;;;;70.30;49.58;;;;;;;;;;5059972;28;20102;-67
2022/10/14 12:10:33;;;;;;;163.05;120.20;;;;;;;;;;5059650;28;20407;-66
2022/10/14 12:13:00;;;;;;;116.25;86.35;;;;;;;;;;4978980;28;20417;-67
2022/10/14 12:15:28;;;;;;;27.40;18.50;;;;;;;;;;4979103;28;20058;-66
2022/10/14 12:17:56;;;;;;;43.85;29.73;;;;;;;;;;4979207;28;20035;-66
2022/10/14 12:20:27;;;;;;;87.43;64.65;;;;;;;;;;4979160;28;20018;-66
2022/10/14 12:22:53;;;;;;;83.75;60.67;;;;;;;;;;4978811;28;20053;-67
2022/10/14 12:25:21;;;;;;;74.70;55.10;;;;;;;;;;4978790;28;20030;-66
2022/10/14 12:27:47;;;;;;;132.43;99.38;;;;;;;;;;4981895;28;20038;-66
2022/10/14 12:30:28;;;;;;;18.15;10.55;;;;;;;;;;4985090;28;20456;-66
2022/10/14 12:33:06;;;;;;;13.50;9.67;;;;;;;;;;4987654;28;20098;-66
2022/10/14 12:35:47;;;;;;;12.85;7.90;;;;;;;;;;4978685;28;20054;-66
2022/10/14 12:38:13;;;;;;;24.35;13.98;;;;;;;;;;4978530;28;20030;-66
2022/10/14 12:40:39;;;;;;;20.40;10.82;;;;;;;;;;4978673;28;20023;-66
2022/10/14 12:43:17;;;;;;;23.92;12.18;;;;;;;;;;4978681;28;20114;-66
2022/10/14 12:45:52;;;;;;;51.15;24.00;;;;;;;;;;4978570;28;20023;-66
2022/10/14 12:48:34;;;;;;;18.05;7.35;;;;;;;;;;4978531;28;20031;-66
2022/10/14 12:51:12;;;;;;;12.63;6.18;;;;;;;;;;5059293;28;20104;-66
2022/10/14 12:53:39;;;;;;;15.35;7.45;;;;;;;;;;5058572;28;20055;-66
2022/10/14 12:56:06;;;;;;;10.57;6.20;;;;;;;;;;5058674;28;20029;-66
2022/10/14 12:58:38;;;;;;;15.63;8.95;;;;;;;;;;5058972;28;20053;-66
2022/10/14 13:01:13;;;;;;;16.80;9.50;;;;;;;;;;5058820;28;20017;-66
2022/10/14 13:03:42;;;;;;;13.02;7.40;;;;;;;;;;5059014;28;20021;-66
2022/10/14 13:06:37;;;;;;;11.00;6.28;;;;;;;;;;5059032;28;20025;-66
2022/10/14 13:09:13;;;;;;;12.35;6.80;;;;;;;;;;4997386;28;20089;-66
2022/10/14 13:11:40;;;;;;;10.38;7.35;;;;;;;;;;4997511;28;20357;-66
2022/10/14 13:14:24;;;;;;;13.45;7.43;;;;;;;;;;4997503;28;20043;-66
2022/10/14 13:16:50;;;;;;;20.20;9.98;;;;;;;;;;4997605;28;20057;-66
2022/10/14 13:19:36;;;;;;;11.90;7.07;;;;;;;;;;4997538;28;20352;-66
2022/10/14 13:22:22;;;;;;;13.45;9.10;;;;;;;;;;4997182;28;20023;-66
2022/10/14 13:24:48;;;;;;;14.05;7.13;;;;;;;;;;4997200;28;20034;-66
2022/10/14 13:27:21;;;;;;;20.35;10.05;;;;;;;;;;4997368;28;20038;-66
2022/10/14 13:30:00;;;;;;;19.17;7.70;;;;;;;;;;4997178;28;20034;-66
2022/10/14 13:32:31;;;;;;;23.45;12.68;;;;;;;;;;4997150;28;20132;-66
2022/10/14 13:35:16;;;;;;;18.30;7.90;;;;;;;;;;4996979;28;20026;-66
2022/10/14 13:37:43;;;;;;;21.02;9.75;;;;;;;;;;4997020;28;20026;-66
2022/10/14 13:40:18;;;;;;;12.77;7.30;;;;;;;;;;4997045;28;20027;-66
2022/10/14 13:42:45;;;;;;;14.90;8.55;;;;;;;;;;4996992;28;20030;-67
2022/10/14 13:45:13;;;;;;;13.25;7.00;;;;;;;;;;5022039;28;20335;-78
2022/10/14 13:47:46;;;;;;;12.20;7.38;;;;;;;;;;5057898;28;20103;-78
2022/10/14 13:50:15;;;;;;;11.38;7.60;;;;;;;;;;5057022;28;20029;-78
2022/10/14 13:52:41;;;;;;;18.02;9.57;;;;;;;;;;5057066;28;20425;-78
2022/10/14 13:55:22;;;;;;;12.93;7.72;;;;;;;;;;5039672;28;20461;-78
2022/10/14 13:58:01;;;;;;;15.30;9.45;;;;;;;;;;5057724;28;20059;-77
2022/10/14 14:00:32;;;;;;;14.88;9.30;;;;;;;;;;5057713;28;20470;-78
2022/10/14 14:03:00;;;;;;;13.10;8.40;;;;;;;;;;5057842;28;20025;-77
2022/10/14 14:05:28;;;;;;;17.95;8.55;;;;;;;;;;5039969;28;20163;-78
2022/10/14 14:07:55;;;;;;;16.30;10.25;;;;;;;;;;5057558;28;20056;-78
2022/10/14 14:10:25;;;;;;;15.35;8.35;;;;;;;;;;5057518;28;20021;-78
2022/10/14 14:12:51;;;;;;;19.75;9.13;;;;;;;;;;5057725;28;20316;-78
2022/10/14 14:15:25;;;;;;;12.50;7.82;;;;;;;;;;5057671;28;20032;-78
2022/10/14 14:17:52;;;;;;;14.25;7.80;;;;;;;;;;5057569;28;20544;-77
2022/10/14 14:20:22;;;;;;;20.50;10.52;;;;;;;;;;5039294;28;20326;-78
2022/10/14 14:22:48;;;;;;;17.90;10.20;;;;;;;;;;5039742;28;20032;-78
2022/10/14 14:25:14;;;;;;;17.60;9.55;;;;;;;;;;5057373;28;20025;-78
2022/10/14 14:27:48;;;;;;;20.77;10.15;;;;;;;;;;5057592;28;20036;-78
2022/10/14 14:30:30;;;;;;;15.32;10.38;;;;;;;;;;5057328;28;20445;-78
2022/10/14 14:32:58;;;;;;;19.85;11.77;;;;;;;;;;5057504;28;20029;-78
2022/10/14 14:35:24;;;;;;;19.02;10.80;;;;;;;;;;5057308;28;20292;-77